Terminal Aerodrome Forecast
Issued by NWS Charleston, WV

Current Version | Previous Version | Graphics & Text | Print | Product List | Glossary On
Versions: 1 2 3 4 5 6 7 8 9 10 11 12 13 14 15 16 17 18 19 20 21 22 23 24 25 26 27 28
000
FTUS41 KRLX 190500
TAFPKB
TAF
KPKB 190530Z 1906/2006 31006KT P6SM OVC040
     FM190800 30006KT 6SM BR OVC020
     FM191000 31005KT 4SM BR BKN017
     FM191200 30004KT P6SM SCT020=

USA.gov is the U.S. government's official web portal to all federal, state and local government web resources and services.